createdAt,value
2022-09-06T00:02:09.012Z,57.89
2022-09-06T00:04:36.808Z,59.81
2022-09-06T00:07:05.629Z,58.88
2022-09-06T00:09:33.334Z,60.59
2022-09-06T00:12:00.977Z,61.63
2022-09-06T00:14:29.065Z,58.91
2022-09-06T00:16:56.953Z,57.77
2022-09-06T00:19:24.945Z,58.22
2022-09-06T00:21:52.733Z,59.15
2022-09-06T00:24:20.344Z,60.81
2022-09-06T00:26:47.954Z,61.96
2022-09-06T00:29:15.642Z,58.87
2022-09-06T00:31:44.149Z,57.71
2022-09-06T00:34:11.826Z,57.93
2022-09-06T00:36:39.538Z,59.09
2022-09-06T00:39:07.196Z,61.45
2022-09-06T00:41:34.889Z,60.11
2022-09-06T00:44:02.890Z,58.21
2022-09-06T00:46:31.856Z,58.63
2022-09-06T00:49:09.756Z,59.66
2022-09-06T00:51:38.208Z,60.47
2022-09-06T00:54:08.108Z,62.26
2022-09-06T00:56:39.225Z,63.48
2022-09-06T00:59:07.416Z,63.13
2022-09-06T01:01:35.328Z,61.45
2022-09-06T01:04:03.647Z,61.81
2022-09-06T01:06:42.388Z,61.26
2022-09-06T01:09:22.928Z,61.00
2022-09-06T01:12:28.336Z,60.58
2022-09-06T01:15:14.548Z,57.32
2022-09-06T01:17:42.104Z,55.41
2022-09-06T01:20:10.109Z,56.76
2022-09-06T01:22:56.090Z,58.71
2022-09-06T01:25:41.912Z,61.65
2022-09-06T01:28:18.622Z,63.66
2022-09-06T01:30:54.036Z,58.86
2022-09-06T01:33:32.630Z,57.42
2022-09-06T01:36:07.003Z,58.51
2022-09-06T01:38:35.329Z,59.76
2022-09-06T01:41:03.171Z,61.68
2022-09-06T01:43:33.608Z,64.55
2022-09-06T01:46:04.344Z,62.70
2022-09-06T01:48:48.101Z,60.38
2022-09-06T01:51:28.776Z,61.03
2022-09-06T01:54:15.710Z,62.13
2022-09-06T01:57:02.030Z,62.83
2022-09-06T01:59:55.209Z,62.73
2022-09-06T02:02:28.245Z,62.20
2022-09-06T02:05:09.671Z,61.75
2022-09-06T02:07:38.921Z,61.80
2022-09-06T02:10:16.314Z,61.58
2022-09-06T02:12:46.035Z,61.14
2022-09-06T02:15:21.793Z,60.28
2022-09-06T02:18:09.921Z,59.44
2022-09-06T02:20:45.759Z,56.01
2022-09-06T02:23:15.351Z,56.96
2022-09-06T02:25:44.362Z,58.15
2022-09-06T02:28:12.094Z,56.76
2022-09-06T02:30:43.591Z,63.25
2022-09-06T02:33:14.953Z,64.91
2022-09-06T02:35:49.814Z,64.53
2022-09-06T02:38:18.624Z,63.91
2022-09-06T02:40:46.846Z,64.09
2022-09-06T02:43:14.737Z,63.07
2022-09-06T02:45:42.656Z,61.33
2022-09-06T02:48:10.509Z,59.19
2022-09-06T02:50:38.146Z,58.69
2022-09-06T02:53:07.174Z,62.30
2022-09-06T02:55:35.059Z,64.04
2022-09-06T02:58:03.657Z,62.56
2022-09-06T03:00:31.605Z,63.23
2022-09-06T03:02:59.633Z,64.05
2022-09-06T03:05:27.880Z,63.43
2022-09-06T03:07:56.529Z,62.60
2022-09-06T03:10:25.927Z,61.92
2022-09-06T03:12:53.719Z,61.37
2022-09-06T03:15:21.784Z,62.16
2022-09-06T03:17:50.110Z,62.55
2022-09-06T03:20:17.852Z,62.45
2022-09-06T03:22:46.085Z,62.08
2022-09-06T03:25:13.986Z,62.19
2022-09-06T03:27:41.588Z,61.60
2022-09-06T03:30:09.842Z,60.66
2022-09-06T03:32:37.449Z,61.07
2022-09-06T03:35:05.690Z,61.31
2022-09-06T03:37:34.140Z,61.55
2022-09-06T03:40:03.324Z,58.86
2022-09-06T03:42:31.082Z,57.45
2022-09-06T03:44:58.834Z,58.47
2022-09-06T03:47:26.513Z,62.01
2022-09-06T03:49:54.303Z,65.19
2022-09-06T03:52:21.946Z,64.61
2022-09-06T03:54:49.999Z,64.72
2022-09-06T03:57:18.437Z,64.47
2022-09-06T03:59:46.511Z,64.12
2022-09-06T04:02:14.304Z,63.71
2022-09-06T04:04:42.003Z,62.90
2022-09-06T04:07:09.912Z,62.66
2022-09-06T04:09:38.121Z,62.40
2022-09-06T04:12:05.901Z,61.20
2022-09-06T04:14:33.545Z,61.35
2022-09-06T04:17:01.469Z,59.63
2022-09-06T04:19:29.177Z,57.96
2022-09-06T04:21:56.943Z,59.19
2022-09-06T04:24:25.133Z,61.69
2022-09-06T04:26:53.199Z,65.09
2022-09-06T04:29:20.935Z,64.88
2022-09-06T04:31:48.735Z,64.38
2022-09-06T04:34:16.564Z,64.34
2022-09-06T04:36:48.191Z,63.86
2022-09-06T04:39:16.972Z,63.24
2022-09-06T04:41:44.618Z,62.84
2022-09-06T04:44:12.430Z,62.13
2022-09-06T04:46:41.717Z,58.51
2022-09-06T04:49:09.415Z,57.85
2022-09-06T04:51:39.997Z,58.83
2022-09-06T04:54:08.250Z,62.10
2022-09-06T04:56:35.939Z,65.76
2022-09-06T04:59:03.632Z,65.84
2022-09-06T05:01:31.472Z,65.45
2022-09-06T05:03:59.800Z,64.39
2022-09-06T05:06:28.353Z,63.67
2022-09-06T05:08:56.073Z,60.81
2022-09-06T05:11:23.848Z,58.94
2022-09-06T05:13:51.922Z,58.99
2022-09-06T05:16:19.710Z,60.01
2022-09-06T05:18:47.417Z,62.58
2022-09-06T05:21:15.884Z,62.61
2022-09-06T05:23:43.688Z,60.43
2022-09-06T05:26:11.396Z,59.57
2022-09-06T05:28:39.057Z,58.75
2022-09-06T05:31:11.921Z,60.05
2022-09-06T05:33:39.783Z,60.57
2022-09-06T05:36:07.955Z,61.98
2022-09-06T05:38:35.643Z,62.16
2022-09-06T05:41:03.497Z,61.04
2022-09-06T05:43:31.282Z,60.14
2022-09-06T05:45:59.458Z,59.03
2022-09-06T05:48:28.229Z,56.73
2022-09-06T05:51:07.192Z,56.46
2022-09-06T05:53:45.493Z,57.07
2022-09-06T05:56:14.353Z,57.57
2022-09-06T05:58:42.149Z,58.04
2022-09-06T06:01:19.772Z,58.17
2022-09-06T06:03:51.983Z,57.04
2022-09-06T06:06:21.023Z,58.11
2022-09-06T06:08:49.102Z,57.54
2022-09-06T06:11:17.382Z,57.12
2022-09-06T06:13:45.484Z,56.98
2022-09-06T06:16:15.177Z,56.45
2022-09-06T06:18:47.648Z,56.84
2022-09-06T06:21:21.526Z,55.56
2022-09-06T06:24:01.057Z,56.25
2022-09-06T06:26:31.759Z,55.41
2022-09-06T06:29:02.040Z,54.98
2022-09-06T06:31:31.705Z,53.86
2022-09-06T06:33:59.490Z,54.37
2022-09-06T06:36:30.682Z,53.81
2022-09-06T06:38:58.830Z,53.65
2022-09-06T06:41:29.051Z,53.01
2022-09-06T06:43:58.392Z,51.90
2022-09-06T06:46:28.362Z,52.20
2022-09-06T06:48:56.617Z,52.14
2022-09-06T06:51:26.728Z,51.89
2022-09-06T06:53:56.773Z,51.95
2022-09-06T06:56:37.453Z,50.73
2022-09-06T06:59:06.980Z,50.09
2022-09-06T07:01:36.084Z,49.92
2022-09-06T07:04:05.505Z,49.10
2022-09-06T07:12:28.834Z,49.24
2022-09-06T07:14:56.516Z,47.77
2022-09-06T07:17:24.233Z,48.10
2022-09-06T07:22:40.409Z,45.35
2022-09-06T07:25:09.805Z,44.43
2022-09-06T07:27:53.063Z,45.26
2022-09-06T07:30:20.880Z,44.36
2022-09-06T07:32:48.971Z,44.09
2022-09-06T07:35:16.701Z,43.78
2022-09-06T07:37:51.903Z,42.93
2022-09-06T07:40:19.792Z,42.83
2022-09-06T07:42:47.739Z,43.01
2022-09-06T07:45:16.099Z,41.42
2022-09-06T07:47:59.442Z,42.30
2022-09-06T07:53:24.770Z,42.07
2022-09-06T07:55:57.608Z,41.73
2022-09-06T07:58:25.576Z,43.30
2022-09-06T08:00:53.314Z,41.77
2022-09-06T08:03:21.241Z,42.09
2022-09-06T08:11:31.681Z,40.66
2022-09-06T08:14:00.914Z,40.03
2022-09-06T08:16:29.327Z,39.70
2022-09-06T08:18:58.782Z,39.73
2022-09-06T08:21:28.664Z,39.76
2022-09-06T08:23:58.360Z,38.91
2022-09-06T08:26:27.216Z,38.92
2022-09-06T08:29:00.111Z,37.98
2022-09-06T08:31:29.521Z,38.69
2022-09-06T08:33:58.140Z,36.03
2022-09-06T08:36:32.363Z,33.25
2022-09-06T08:39:01.545Z,29.61
2022-09-06T08:41:44.775Z,28.17
2022-09-06T08:44:57.006Z,27.22
2022-09-06T08:47:25.553Z,25.67
2022-09-06T08:49:57.677Z,25.21
2022-09-06T08:52:54.438Z,24.61
2022-09-06T08:55:37.876Z,24.70
2022-09-06T08:58:43.165Z,24.08
2022-09-06T09:01:25.404Z,21.98
2022-09-06T09:03:56.305Z,20.84
2022-09-06T09:06:24.822Z,20.92
2022-09-06T09:08:53.251Z,20.18
2022-09-06T09:11:21.867Z,20.11
2022-09-06T09:14:11.570Z,21.29
2022-09-06T09:16:40.014Z,23.09
2022-09-06T09:19:09.345Z,21.44
2022-09-06T09:21:38.348Z,21.89
2022-09-06T09:24:15.982Z,22.10
2022-09-06T09:26:53.758Z,21.53
2022-09-06T09:29:26.707Z,20.75
2022-09-06T09:31:56.020Z,19.68
2022-09-06T09:34:50.994Z,19.23
2022-09-06T09:40:33.478Z,17.68
2022-09-06T09:43:22.066Z,16.26
2022-09-06T09:46:15.611Z,15.91
2022-09-06T09:49:04.685Z,14.59
2022-09-06T09:51:43.909Z,14.86
2022-09-06T09:54:13.940Z,14.16
2022-09-06T09:56:44.338Z,14.49
2022-09-06T09:59:33.198Z,13.51
2022-09-06T10:02:03.068Z,13.08
2022-09-06T10:04:48.994Z,12.12
2022-09-06T10:07:19.711Z,12.73
2022-09-06T10:09:49.359Z,12.00
2022-09-06T10:12:19.470Z,11.82
2022-09-06T10:14:49.272Z,11.16
2022-09-06T10:17:24.260Z,12.37
2022-09-06T10:19:51.907Z,12.17
2022-09-06T10:22:31.330Z,10.29
2022-09-06T10:25:06.764Z,9.48
2022-09-06T10:27:35.916Z,9.94
2022-09-06T10:30:06.737Z,10.64
2022-09-06T10:32:42.905Z,11.33
2022-09-06T10:35:37.396Z,9.76
2022-09-06T10:38:32.883Z,9.91
2022-09-06T10:41:09.507Z,9.69
2022-09-06T10:43:45.578Z,9.95
2022-09-06T10:46:16.414Z,9.61
2022-09-06T10:48:47.392Z,9.76
2022-09-06T10:51:34.566Z,11.13
2022-09-06T10:54:08.555Z,10.87
2022-09-06T10:56:36.867Z,11.63
2022-09-06T10:59:40.014Z,11.50
2022-09-06T11:02:32.777Z,12.17
2022-09-06T11:10:48.183Z,12.39
2022-09-06T11:13:20.424Z,12.40
2022-09-06T11:16:20.497Z,12.95
2022-09-06T11:19:02.178Z,13.53
2022-09-06T11:22:12.152Z,13.53
2022-09-06T11:25:06.155Z,13.05
2022-09-06T11:27:36.794Z,13.56
2022-09-06T11:30:06.839Z,14.30
2022-09-06T11:32:48.873Z,15.03
2022-09-06T11:35:28.612Z,15.54
2022-09-06T11:38:19.340Z,15.82
2022-09-06T11:40:49.286Z,16.62
2022-09-06T11:43:41.538Z,17.96
2022-09-06T11:46:09.407Z,18.85
2022-09-06T11:48:45.085Z,18.92
2022-09-06T11:51:31.250Z,19.34
2022-09-06T11:53:59.203Z,19.89
2022-09-06T11:56:31.324Z,20.59
2022-09-06T11:59:08.292Z,21.37
2022-09-06T12:01:37.301Z,22.16
2022-09-06T12:04:07.345Z,21.39
2022-09-06T12:06:42.872Z,22.60
2022-09-06T12:09:30.504Z,22.77
2022-09-06T12:11:59.063Z,22.83
2022-09-06T12:14:49.196Z,24.25
2022-09-06T12:17:20.812Z,22.25
2022-09-06T12:19:56.079Z,24.00
2022-09-06T12:22:26.805Z,23.96
2022-09-06T12:24:57.104Z,22.73
2022-09-06T12:27:29.675Z,23.38
2022-09-06T12:29:59.805Z,25.34
2022-09-06T12:32:36.213Z,26.30
2022-09-06T12:38:15.899Z,24.81
2022-09-06T12:40:48.685Z,25.29
2022-09-06T12:43:17.853Z,26.76
2022-09-06T12:45:47.315Z,25.75
2022-09-06T12:48:33.655Z,25.79
2022-09-06T12:51:03.480Z,26.35
2022-09-06T12:53:32.099Z,26.73
2022-09-06T12:56:08.785Z,25.76
2022-09-06T12:58:37.671Z,25.95
2022-09-06T13:01:23.125Z,25.95
2022-09-06T13:04:02.853Z,25.88
2022-09-06T13:06:36.516Z,26.31
2022-09-06T13:09:05.676Z,27.43
2022-09-06T13:11:36.839Z,26.82
2022-09-06T13:14:18.607Z,26.20
2022-09-06T13:16:48.755Z,26.21
2022-09-06T13:19:31.898Z,27.13
2022-09-06T13:22:00.426Z,27.10
2022-09-06T13:24:46.910Z,27.76
2022-09-06T13:27:35.787Z,27.86
2022-09-06T13:30:06.959Z,28.05
2022-09-06T13:32:36.356Z,29.72
2022-09-06T13:35:04.936Z,28.64
2022-09-06T13:37:35.618Z,29.03
2022-09-06T13:41:08.994Z,28.96
2022-09-06T13:43:33.413Z,27.99
2022-09-06T13:46:09.960Z,28.60
2022-09-06T13:48:39.581Z,28.73
2022-09-06T13:51:08.234Z,28.86
2022-09-06T13:53:36.407Z,28.31
2022-09-06T13:56:05.058Z,29.05
2022-09-06T13:58:33.183Z,29.30
2022-09-06T14:01:01.502Z,29.51
2022-09-06T14:03:31.782Z,30.46
2022-09-06T14:06:00.405Z,29.54
2022-09-06T14:08:43.866Z,29.58
2022-09-06T14:11:17.588Z,28.73
2022-09-06T14:13:45.397Z,28.46
2022-09-06T14:16:13.457Z,29.60
2022-09-06T14:18:41.511Z,28.81
2022-09-06T14:21:09.372Z,28.29
2022-09-06T14:23:37.169Z,28.37
2022-09-06T14:26:05.931Z,28.64
2022-09-06T14:28:34.097Z,28.40
2022-09-06T14:31:36.916Z,28.58
2022-09-06T14:34:04.570Z,28.61
2022-09-06T14:36:34.619Z,28.16
2022-09-06T14:39:02.372Z,28.02
2022-09-06T14:41:30.379Z,27.92
2022-09-06T14:43:59.405Z,27.80
2022-09-06T14:46:28.029Z,27.31
2022-09-06T14:48:58.379Z,26.99
2022-09-06T14:51:26.285Z,26.77
2022-09-06T14:54:00.395Z,26.90
2022-09-06T14:56:28.193Z,27.15
2022-09-06T14:58:57.498Z,27.49
2022-09-06T15:01:28.616Z,27.75
2022-09-06T15:03:58.769Z,27.87
2022-09-06T15:06:27.615Z,28.19
2022-09-06T15:08:59.365Z,28.34
2022-09-06T15:11:35.375Z,28.55
2022-09-06T15:14:05.130Z,28.31
2022-09-06T15:16:33.252Z,29.65
2022-09-06T15:19:02.875Z,28.90
2022-09-06T15:21:31.705Z,29.44
2022-09-06T15:24:00.817Z,29.18
2022-09-06T15:26:29.393Z,29.20
2022-09-06T15:28:57.447Z,29.35
2022-09-06T15:31:25.482Z,29.70
2022-09-06T15:33:53.886Z,29.67
2022-09-06T15:36:22.061Z,29.84
2022-09-06T15:38:52.229Z,31.44
2022-09-06T15:41:25.206Z,31.20
2022-09-06T15:43:56.718Z,30.79
2022-09-06T15:46:34.938Z,30.60
2022-09-06T15:49:06.544Z,31.05
2022-09-06T15:51:35.371Z,31.41
2022-09-06T15:54:03.356Z,31.65
2022-09-06T15:56:31.113Z,32.05
2022-09-06T15:58:59.005Z,31.50
2022-09-06T16:01:27.058Z,32.15
2022-09-06T16:04:05.551Z,32.41
2022-09-06T16:06:37.158Z,31.79
2022-09-06T16:09:08.106Z,32.76
2022-09-06T16:11:37.094Z,33.20
2022-09-06T16:14:06.667Z,32.82
2022-09-06T16:16:35.904Z,33.72
2022-09-06T16:19:04.373Z,33.70
2022-09-06T16:21:33.672Z,34.28
2022-09-06T16:24:02.914Z,34.30
2022-09-06T16:26:37.711Z,33.89
2022-09-06T16:29:07.917Z,35.62
2022-09-06T16:31:40.104Z,36.59
2022-09-06T16:34:09.752Z,37.20
2022-09-06T16:36:38.280Z,38.26
2022-09-06T16:39:08.019Z,39.24
2022-09-06T16:41:41.171Z,41.03
2022-09-06T16:44:14.447Z,41.33
2022-09-06T16:46:43.800Z,41.02
2022-09-06T16:49:11.579Z,40.44
2022-09-06T16:51:39.406Z,39.30
2022-09-06T16:54:07.212Z,43.49
2022-09-06T16:56:36.058Z,43.61
2022-09-06T16:59:06.836Z,43.45
2022-09-06T17:01:36.263Z,43.61
2022-09-06T17:04:05.527Z,44.76
2022-09-06T17:06:38.366Z,45.03
2022-09-06T17:09:06.217Z,44.47
2022-09-06T17:11:34.538Z,45.88
2022-09-06T17:14:02.332Z,45.20
2022-09-06T17:16:49.083Z,44.90
2022-09-06T17:19:18.124Z,44.11
2022-09-06T17:21:47.768Z,47.00
2022-09-06T17:24:15.721Z,46.72
2022-09-06T17:26:43.644Z,47.39
2022-09-06T17:29:11.789Z,48.42
2022-09-06T17:31:39.902Z,48.36
2022-09-06T17:34:07.843Z,47.99
2022-09-06T17:36:36.501Z,47.98
2022-09-06T17:39:07.729Z,48.18
2022-09-06T17:41:36.548Z,49.77
2022-09-06T17:44:06.870Z,49.52
2022-09-06T17:46:34.705Z,48.84
2022-09-06T17:49:03.284Z,48.39
2022-09-06T17:51:32.789Z,49.19
2022-09-06T17:54:00.693Z,49.63
2022-09-06T17:56:30.333Z,51.03
2022-09-06T17:58:59.416Z,51.86
2022-09-06T18:01:30.962Z,47.78
2022-09-06T18:03:59.637Z,49.42
2022-09-06T18:06:28.859Z,49.28
2022-09-06T18:08:59.849Z,50.01
2022-09-06T18:11:30.057Z,50.61
2022-09-06T18:14:02.124Z,49.95
2022-09-06T18:16:30.728Z,50.31
2022-09-06T18:19:00.817Z,51.88
2022-09-06T18:21:31.027Z,52.15
2022-09-06T18:23:59.054Z,52.45
2022-09-06T18:26:27.288Z,53.37
2022-09-06T18:28:55.396Z,54.64
2022-09-06T18:31:25.115Z,54.83
2022-09-06T18:33:56.317Z,53.94
2022-09-06T18:36:27.526Z,54.95
2022-09-06T18:38:57.809Z,55.83
2022-09-06T18:41:43.981Z,56.59
2022-09-06T18:44:11.711Z,56.21
2022-09-06T18:46:39.526Z,57.29
2022-09-06T18:49:07.390Z,57.21
2022-09-06T18:51:35.486Z,56.92
2022-09-06T18:54:03.333Z,58.42
2022-09-06T18:56:31.373Z,58.37
2022-09-06T18:59:00.666Z,57.05
2022-09-06T19:01:29.968Z,57.49
2022-09-06T19:03:58.505Z,59.08
2022-09-06T19:06:28.154Z,62.06
2022-09-06T19:09:00.948Z,63.58
2022-09-06T19:11:29.369Z,62.07
2022-09-06T19:13:58.350Z,58.61
2022-09-06T19:16:27.807Z,53.98
2022-09-06T19:18:56.923Z,53.85
2022-09-06T19:21:25.578Z,51.92
2022-09-06T19:23:59.459Z,56.67
2022-09-06T19:26:30.875Z,57.82
2022-09-06T19:29:04.804Z,58.54
2022-09-06T19:31:34.872Z,61.15
2022-09-06T19:34:04.029Z,62.86
2022-09-06T19:36:32.288Z,61.89
2022-09-06T19:39:08.293Z,61.47
2022-09-06T19:41:39.955Z,56.81
2022-09-06T19:44:09.041Z,54.81
2022-09-06T19:46:37.661Z,54.34
2022-09-06T19:49:08.146Z,55.82
2022-09-06T19:51:36.872Z,57.86
2022-09-06T19:54:05.437Z,59.98
2022-09-06T19:56:35.137Z,61.90
2022-09-06T19:59:08.809Z,63.07
2022-09-06T20:01:38.086Z,57.99
2022-09-06T20:04:08.253Z,56.85
2022-09-06T20:06:36.640Z,57.49
2022-09-06T20:09:06.715Z,57.02
2022-09-06T20:11:36.002Z,58.29
2022-09-06T20:14:04.084Z,58.22
2022-09-06T20:16:32.553Z,58.42
2022-09-06T20:19:00.705Z,59.37
2022-09-06T20:21:29.720Z,62.11
2022-09-06T20:23:59.383Z,64.58
2022-09-06T20:26:28.333Z,61.90
2022-09-06T20:29:01.626Z,54.81
2022-09-06T20:31:31.127Z,54.10
2022-09-06T20:34:00.681Z,54.63
2022-09-06T20:36:30.156Z,52.12
2022-09-06T20:38:57.941Z,55.42
2022-09-06T20:41:27.280Z,57.09
2022-09-06T20:43:56.146Z,57.12
2022-09-06T20:46:26.640Z,54.31
2022-09-06T20:48:57.566Z,57.43
2022-09-06T20:51:26.040Z,57.78
2022-09-06T20:53:55.905Z,60.12
2022-09-06T20:56:33.625Z,62.09
2022-09-06T20:59:03.284Z,63.24
2022-09-06T21:01:34.368Z,60.93
2022-09-06T21:04:04.120Z,55.66
2022-09-06T21:06:34.418Z,55.88
2022-09-06T21:09:08.337Z,54.39
2022-09-06T21:11:36.393Z,58.78
2022-09-06T21:14:05.664Z,62.84
2022-09-06T21:16:34.020Z,65.00
2022-09-06T21:19:05.203Z,60.56
2022-09-06T21:21:34.618Z,55.90
2022-09-06T21:24:04.838Z,55.74
2022-09-06T21:26:32.789Z,57.18
2022-09-06T21:29:00.481Z,59.37
2022-09-06T21:31:33.073Z,60.60
2022-09-06T21:34:07.523Z,63.86
2022-09-06T21:36:37.292Z,65.39
2022-09-06T21:39:05.821Z,64.26
2022-09-06T21:41:36.974Z,64.14
2022-09-06T21:44:06.910Z,58.75
2022-09-06T21:46:37.124Z,57.77
2022-09-06T21:49:08.278Z,57.79
2022-09-06T21:51:37.898Z,59.32
2022-09-06T21:54:06.102Z,59.17
2022-09-06T21:56:36.350Z,58.50
2022-09-06T21:59:05.689Z,58.57
2022-09-06T22:01:35.432Z,56.32
2022-09-06T22:04:04.627Z,56.07
2022-09-06T22:06:33.554Z,58.05
2022-09-06T22:09:04.332Z,61.57
2022-09-06T22:11:33.911Z,63.14
2022-09-06T22:14:05.842Z,63.53
2022-09-06T22:16:37.645Z,63.57
2022-09-06T22:19:06.648Z,59.40
2022-09-06T22:21:34.896Z,56.00
2022-09-06T22:24:06.269Z,56.40
2022-09-06T22:26:36.560Z,56.33
2022-09-06T22:29:07.279Z,56.81
2022-09-06T22:31:35.676Z,57.72
2022-09-06T22:34:04.031Z,59.12
2022-09-06T22:36:32.112Z,58.71
2022-09-06T22:39:00.801Z,59.02
2022-09-06T22:41:31.048Z,59.24
2022-09-06T22:44:00.417Z,61.24
2022-09-06T22:46:29.023Z,62.60
2022-09-06T22:48:57.154Z,61.65
2022-09-06T22:51:25.048Z,61.73
2022-09-06T22:53:52.785Z,60.15
2022-09-06T22:56:21.134Z,57.68
2022-09-06T22:58:49.815Z,56.07
2022-09-06T23:01:17.714Z,56.09
2022-09-06T23:03:46.873Z,56.49
2022-09-06T23:06:15.058Z,56.53
2022-09-06T23:08:43.010Z,58.18
2022-09-06T23:11:16.494Z,58.96
2022-09-06T23:13:45.823Z,59.19
2022-09-06T23:16:15.357Z,58.67
2022-09-06T23:18:45.056Z,56.27
2022-09-06T23:21:17.029Z,59.62
2022-09-06T23:23:45.836Z,59.08
2022-09-06T23:26:19.868Z,59.50
2022-09-06T23:28:52.032Z,62.52
2022-09-06T23:31:19.974Z,65.32
2022-09-06T23:33:52.049Z,65.11
2022-09-06T23:36:19.784Z,63.40
2022-09-06T23:38:47.559Z,61.92
2022-09-06T23:41:15.720Z,56.00
2022-09-06T23:43:43.867Z,56.07
2022-09-06T23:46:13.118Z,56.08
2022-09-06T23:48:41.022Z,57.78
2022-09-06T23:51:09.330Z,58.52
2022-09-06T23:53:37.124Z,61.65
2022-09-06T23:56:05.787Z,62.98
2022-09-06T23:58:33.848Z,62.44
